sensor_id;sensor_type;location;lat;lon;timestamp;pressure;altitude;pressure_sealevel;temperature;humidity
52735;BME280;38631;47.572;10.704;2023-09-18T00:01:46;92294.72;;;20.79;52.66
52735;BME280;38631;47.572;10.704;2023-09-18T00:04:11;92276.94;;;20.78;52.19
52735;BME280;38631;47.572;10.704;2023-09-18T00:06:37;92276.34;;;21.03;50.99
52735;BME280;38631;47.572;10.704;2023-09-18T00:09:02;92290.13;;;20.87;52.26
52735;BME280;38631;47.572;10.704;2023-09-18T00:11:28;92278.16;;;20.84;51.92
52735;BME280;38631;47.572;10.704;2023-09-18T00:13:53;92290.59;;;21.00;51.33
52735;BME280;38631;47.572;10.704;2023-09-18T00:16:18;92287.50;;;20.98;51.03
52735;BME280;38631;47.572;10.704;2023-09-18T00:18:44;92292.09;;;20.90;51.61
52735;BME280;38631;47.572;10.704;2023-09-18T00:21:10;92286.03;;;21.11;50.52
52735;BME280;38631;47.572;10.704;2023-09-18T00:23:36;92285.50;;;20.87;51.88
52735;BME280;38631;47.572;10.704;2023-09-18T00:26:02;92280.47;;;20.82;51.97
52735;BME280;38631;47.572;10.704;2023-09-18T00:28:27;92278.59;;;20.93;51.40
52735;BME280;38631;47.572;10.704;2023-09-18T00:30:52;92269.38;;;20.98;50.93
52735;BME280;38631;47.572;10.704;2023-09-18T00:33:18;92270.94;;;21.03;51.00
52735;BME280;38631;47.572;10.704;2023-09-18T00:35:51;92274.16;;;21.23;49.87
52735;BME280;38631;47.572;10.704;2023-09-18T00:38:17;92271.75;;;21.07;50.51
52735;BME280;38631;47.572;10.704;2023-09-18T00:40:42;92267.47;;;21.02;50.62
52735;BME280;38631;47.572;10.704;2023-09-18T00:43:08;92265.97;;;21.08;50.35
52735;BME280;38631;47.572;10.704;2023-09-18T00:45:40;92255.09;;;20.98;50.88
52735;BME280;38631;47.572;10.704;2023-09-18T00:48:07;92249.66;;;20.94;51.11
52735;BME280;38631;47.572;10.704;2023-09-18T00:50:32;92225.53;;;21.23;49.85
52735;BME280;38631;47.572;10.704;2023-09-18T00:52:59;92217.03;;;21.21;49.72
52735;BME280;38631;47.572;10.704;2023-09-18T00:55:24;92215.94;;;21.36;48.91
52735;BME280;38631;47.572;10.704;2023-09-18T00:57:50;92220.22;;;21.37;48.85
52735;BME280;38631;47.572;10.704;2023-09-18T01:00:15;92218.97;;;21.20;49.42
52735;BME280;38631;47.572;10.704;2023-09-18T01:02:43;92213.91;;;21.11;49.96
52735;BME280;38631;47.572;10.704;2023-09-18T01:05:08;92215.41;;;21.05;49.72
52735;BME280;38631;47.572;10.704;2023-09-18T01:07:34;92221.59;;;21.02;50.26
52735;BME280;38631;47.572;10.704;2023-09-18T01:09:59;92228.16;;;21.08;50.11
52735;BME280;38631;47.572;10.704;2023-09-18T01:12:33;92225.88;;;21.14;49.32
52735;BME280;38631;47.572;10.704;2023-09-18T01:15:14;92211.16;;;20.97;50.26
52735;BME280;38631;47.572;10.704;2023-09-18T01:17:42;92202.78;;;21.24;48.83
52735;BME280;38631;47.572;10.704;2023-09-18T01:20:11;92205.44;;;21.13;49.37
52735;BME280;38631;47.572;10.704;2023-09-18T01:22:36;92214.31;;;21.13;49.50
52735;BME280;38631;47.572;10.704;2023-09-18T01:25:02;92222.75;;;21.08;49.74
52735;BME280;38631;47.572;10.704;2023-09-18T01:27:27;92205.72;;;20.93;50.08
52735;BME280;38631;47.572;10.704;2023-09-18T01:29:53;92208.41;;;20.93;50.24
52735;BME280;38631;47.572;10.704;2023-09-18T01:32:19;92190.34;;;21.05;49.70
52735;BME280;38631;47.572;10.704;2023-09-18T01:34:49;92204.63;;;21.09;49.62
52735;BME280;38631;47.572;10.704;2023-09-18T01:37:17;92215.38;;;20.95;50.89
52735;BME280;38631;47.572;10.704;2023-09-18T01:39:46;92210.81;;;21.09;49.76
52735;BME280;38631;47.572;10.704;2023-09-18T01:42:12;92210.81;;;21.09;49.23
52735;BME280;38631;47.572;10.704;2023-09-18T01:44:38;92198.84;;;21.07;49.63
52735;BME280;38631;47.572;10.704;2023-09-18T01:47:05;92198.97;;;21.32;48.08
52735;BME280;38631;47.572;10.704;2023-09-18T01:49:34;92200.91;;;21.35;48.30
52735;BME280;38631;47.572;10.704;2023-09-18T01:52:00;92183.97;;;21.45;48.34
52735;BME280;38631;47.572;10.704;2023-09-18T01:54:25;92188.22;;;21.43;47.87
52735;BME280;38631;47.572;10.704;2023-09-18T01:56:51;92194.34;;;21.32;48.64
52735;BME280;38631;47.572;10.704;2023-09-18T01:59:17;92187.81;;;21.41;48.39
52735;BME280;38631;47.572;10.704;2023-09-18T02:01:43;92178.94;;;21.44;47.82
52735;BME280;38631;47.572;10.704;2023-09-18T02:04:09;92170.38;;;21.31;48.49
52735;BME280;38631;47.572;10.704;2023-09-18T02:06:35;92178.47;;;21.24;49.07
52735;BME280;38631;47.572;10.704;2023-09-18T02:09:00;92164.31;;;21.59;46.97
52735;BME280;38631;47.572;10.704;2023-09-18T02:11:26;92159.63;;;21.42;47.89
52735;BME280;38631;47.572;10.704;2023-09-18T02:13:52;92148.50;;;21.47;47.79
52735;BME280;38631;47.572;10.704;2023-09-18T02:16:17;92141.44;;;21.31;48.46
52735;BME280;38631;47.572;10.704;2023-09-18T02:18:44;92139.13;;;21.23;48.40
52735;BME280;38631;47.572;10.704;2023-09-18T02:21:09;92134.16;;;21.39;48.03
52735;BME280;38631;47.572;10.704;2023-09-18T02:23:35;92126.41;;;21.30;48.60
52735;BME280;38631;47.572;10.704;2023-09-18T02:26:00;92127.84;;;21.03;49.56
52735;BME280;38631;47.572;10.704;2023-09-18T02:28:25;92122.25;;;21.58;47.42
52735;BME280;38631;47.572;10.704;2023-09-18T02:30:51;92117.91;;;21.28;48.84
52735;BME280;38631;47.572;10.704;2023-09-18T02:33:16;92119.41;;;21.15;49.18
52735;BME280;38631;47.572;10.704;2023-09-18T02:35:42;92113.63;;;21.13;49.03
52735;BME280;38631;47.572;10.704;2023-09-18T02:38:10;92115.19;;;21.21;49.29
52735;BME280;38631;47.572;10.704;2023-09-18T02:40:35;92113.66;;;21.20;48.69
52735;BME280;38631;47.572;10.704;2023-09-18T02:43:01;92109.81;;;21.35;48.45
52735;BME280;38631;47.572;10.704;2023-09-18T02:45:27;92092.44;;;21.36;48.17
52735;BME280;38631;47.572;10.704;2023-09-18T02:47:52;92102.16;;;21.45;47.65
52735;BME280;38631;47.572;10.704;2023-09-18T02:50:18;92099.09;;;21.50;47.76
52735;BME280;38631;47.572;10.704;2023-09-18T02:52:43;92101.66;;;21.14;49.77
52735;BME280;38631;47.572;10.704;2023-09-18T02:55:08;92109.81;;;21.35;47.89
52735;BME280;38631;47.572;10.704;2023-09-18T02:57:35;92105.16;;;21.29;48.63
52735;BME280;38631;47.572;10.704;2023-09-18T03:00:00;92107.94;;;21.40;48.11
52735;BME280;38631;47.572;10.704;2023-09-18T03:02:26;92110.19;;;21.30;48.88
52735;BME280;38631;47.572;10.704;2023-09-18T03:04:51;92097.53;;;21.52;47.16
52735;BME280;38631;47.572;10.704;2023-09-18T03:07:16;92108.66;;;21.36;47.90
52735;BME280;38631;47.572;10.704;2023-09-18T03:09:42;92112.97;;;21.45;47.65
52735;BME280;38631;47.572;10.704;2023-09-18T03:12:08;92089.78;;;21.44;47.80
52735;BME280;38631;47.572;10.704;2023-09-18T03:14:34;92086.28;;;21.22;48.67
52735;BME280;38631;47.572;10.704;2023-09-18T03:16:59;92089.81;;;21.62;46.83
52735;BME280;38631;47.572;10.704;2023-09-18T03:19:25;92081.72;;;21.65;47.01
52735;BME280;38631;47.572;10.704;2023-09-18T03:21:52;92096.75;;;21.45;47.57
52735;BME280;38631;47.572;10.704;2023-09-18T03:24:17;92092.56;;;21.79;45.87
52735;BME280;38631;47.572;10.704;2023-09-18T03:26:43;92076.72;;;21.67;46.49
52735;BME280;38631;47.572;10.704;2023-09-18T03:29:08;92080.59;;;21.77;47.11
52735;BME280;38631;47.572;10.704;2023-09-18T03:31:33;92079.78;;;21.55;47.24
52735;BME280;38631;47.572;10.704;2023-09-18T03:33:59;92063.56;;;21.91;45.81
52735;BME280;38631;47.572;10.704;2023-09-18T03:36:24;92075.94;;;21.85;45.44
52735;BME280;38631;47.572;10.704;2023-09-18T03:38:50;92053.94;;;21.57;47.05
52735;BME280;38631;47.572;10.704;2023-09-18T03:41:15;92049.28;;;21.58;47.15
52735;BME280;38631;47.572;10.704;2023-09-18T03:43:40;92043.47;;;21.92;45.76
52735;BME280;38631;47.572;10.704;2023-09-18T03:46:06;92050.84;;;21.73;46.58
52735;BME280;38631;47.572;10.704;2023-09-18T03:48:32;92054.28;;;21.99;45.18
52735;BME280;38631;47.572;10.704;2023-09-18T03:51:03;92061.66;;;21.81;46.47
52735;BME280;38631;47.572;10.704;2023-09-18T03:53:29;92055.84;;;21.46;47.78
52735;BME280;38631;47.572;10.704;2023-09-18T03:55:54;92055.84;;;21.64;46.78
52735;BME280;38631;47.572;10.704;2023-09-18T03:58:20;92048.53;;;21.90;45.70
52735;BME280;38631;47.572;10.704;2023-09-18T04:00:45;92054.31;;;21.63;47.60
52735;BME280;38631;47.572;10.704;2023-09-18T04:03:11;92039.63;;;21.46;48.23
52735;BME280;38631;47.572;10.704;2023-09-18T04:05:36;92046.59;;;21.54;47.61
52735;BME280;38631;47.572;10.704;2023-09-18T04:08:01;92031.13;;;21.44;48.21
52735;BME280;38631;47.572;10.704;2023-09-18T04:10:27;92041.94;;;21.48;47.68
52735;BME280;38631;47.572;10.704;2023-09-18T04:12:52;92044.66;;;21.69;46.93
52735;BME280;38631;47.572;10.704;2023-09-18T04:15:18;92045.03;;;21.64;47.90
52735;BME280;38631;47.572;10.704;2023-09-18T04:17:44;92047.34;;;21.58;47.06
52735;BME280;38631;47.572;10.704;2023-09-18T04:20:10;92040.81;;;21.63;46.99
52735;BME280;38631;47.572;10.704;2023-09-18T04:22:36;92038.88;;;21.60;47.10
52735;BME280;38631;47.572;10.704;2023-09-18T04:25:01;92035.78;;;21.58;47.07
52735;BME280;38631;47.572;10.704;2023-09-18T04:27:30;92052.75;;;21.51;47.97
52735;BME280;38631;47.572;10.704;2023-09-18T04:29:55;92043.81;;;21.36;47.88
52735;BME280;38631;47.572;10.704;2023-09-18T04:32:21;92048.50;;;21.54;47.21
52735;BME280;38631;47.572;10.704;2023-09-18T04:34:46;92041.16;;;21.44;48.24
52735;BME280;38631;47.572;10.704;2023-09-18T04:37:12;92056.94;;;21.27;48.52
52735;BME280;38631;47.572;10.704;2023-09-18T04:39:37;92051.09;;;21.00;49.74
52735;BME280;38631;47.572;10.704;2023-09-18T04:42:03;92063.41;;;20.94;50.49
52735;BME280;38631;47.572;10.704;2023-09-18T04:44:31;92053.13;;;21.39;48.84
52735;BME280;38631;47.572;10.704;2023-09-18T04:46:57;92063.94;;;21.46;48.38
52735;BME280;38631;47.572;10.704;2023-09-18T04:49:23;92058.56;;;21.71;46.86
52735;BME280;38631;47.572;10.704;2023-09-18T04:51:49;92047.69;;;22.36;44.30
52735;BME280;38631;47.572;10.704;2023-09-18T04:54:14;92048.50;;;21.79;46.56
52735;BME280;38631;47.572;10.704;2023-09-18T04:56:40;92054.28;;;21.92;46.65
52735;BME280;38631;47.572;10.704;2023-09-18T04:59:06;92057.38;;;21.62;47.61
52735;BME280;38631;47.572;10.704;2023-09-18T05:01:31;92062.41;;;21.49;48.11
52735;BME280;38631;47.572;10.704;2023-09-18T05:03:57;92080.16;;;21.46;48.66
52735;BME280;38631;47.572;10.704;2023-09-18T05:06:22;92088.00;;;20.05;55.62
52735;BME280;38631;47.572;10.704;2023-09-18T05:08:48;92081.03;;;19.52;58.35
52735;BME280;38631;47.572;10.704;2023-09-18T05:11:13;92087.84;;;19.39;59.75
52735;BME280;38631;47.572;10.704;2023-09-18T05:13:39;92089.69;;;19.31;60.05
52735;BME280;38631;47.572;10.704;2023-09-18T05:16:04;92091.81;;;19.15;61.82
52735;BME280;38631;47.572;10.704;2023-09-18T05:18:30;92099.91;;;19.18;61.77
52735;BME280;38631;47.572;10.704;2023-09-18T05:20:56;92109.44;;;19.09;62.06
52735;BME280;38631;47.572;10.704;2023-09-18T05:23:21;92109.72;;;18.70;66.05
52735;BME280;38631;47.572;10.704;2023-09-18T05:25:47;92107.66;;;18.86;64.70
52735;BME280;38631;47.572;10.704;2023-09-18T05:28:12;92103.53;;;18.66;67.17
52735;BME280;38631;47.572;10.704;2023-09-18T05:30:38;92100.13;;;18.69;66.61
52735;BME280;38631;47.572;10.704;2023-09-18T05:33:05;92102.34;;;18.63;69.24
52735;BME280;38631;47.572;10.704;2023-09-18T05:35:31;92104.97;;;18.56;69.67
52735;BME280;38631;47.572;10.704;2023-09-18T05:37:57;92097.56;;;18.76;69.21
52735;BME280;38631;47.572;10.704;2023-09-18T05:40:23;92104.03;;;18.75;66.80
52735;BME280;38631;47.572;10.704;2023-09-18T05:42:54;92115.00;;;18.63;67.11
52735;BME280;38631;47.572;10.704;2023-09-18T05:45:20;92117.78;;;18.70;67.24
52735;BME280;38631;47.572;10.704;2023-09-18T05:47:46;92131.66;;;18.72;68.43
52735;BME280;38631;47.572;10.704;2023-09-18T05:50:12;92126.63;;;18.40;69.90
52735;BME280;38631;47.572;10.704;2023-09-18T05:52:46;92131.09;;;18.29;72.07
52735;BME280;38631;47.572;10.704;2023-09-18T05:55:16;92127.22;;;18.26;75.76
52735;BME280;38631;47.572;10.704;2023-09-18T05:57:41;92137.47;;;18.47;75.10
52735;BME280;38631;47.572;10.704;2023-09-18T06:00:08;92164.34;;;18.74;74.86
52735;BME280;38631;47.572;10.704;2023-09-18T06:02:39;92171.22;;;18.18;77.89
52735;BME280;38631;47.572;10.704;2023-09-18T06:05:05;92161.06;;;18.04;76.93
52735;BME280;38631;47.572;10.704;2023-09-18T06:07:31;92180.22;;;18.26;74.70
52735;BME280;38631;47.572;10.704;2023-09-18T06:09:57;92172.72;;;18.39;72.01
52735;BME280;38631;47.572;10.704;2023-09-18T06:12:23;92178.03;;;18.62;72.18
52735;BME280;38631;47.572;10.704;2023-09-18T06:14:49;92181.91;;;18.64;71.82
52735;BME280;38631;47.572;10.704;2023-09-18T06:17:15;92187.91;;;18.54;73.01
52735;BME280;38631;47.572;10.704;2023-09-18T06:19:44;92187.69;;;18.66;70.48
52735;BME280;38631;47.572;10.704;2023-09-18T06:22:10;92193.28;;;18.54;73.90
52735;BME280;38631;47.572;10.704;2023-09-18T06:24:36;92188.81;;;18.65;73.65
52735;BME280;38631;47.572;10.704;2023-09-18T06:27:03;92200.97;;;18.78;70.30
52735;BME280;38631;47.572;10.704;2023-09-18T06:29:32;92202.50;;;18.80;70.02
52735;BME280;38631;47.572;10.704;2023-09-18T06:31:58;92203.69;;;18.82;71.59
52735;BME280;38631;47.572;10.704;2023-09-18T06:34:23;92205.22;;;18.83;72.38
52735;BME280;38631;47.572;10.704;2023-09-18T06:36:48;92197.56;;;18.85;72.83
52735;BME280;38631;47.572;10.704;2023-09-18T06:39:14;92197.97;;;18.87;72.91
52735;BME280;38631;47.572;10.704;2023-09-18T06:41:40;92194.34;;;19.03;71.69
52735;BME280;38631;47.572;10.704;2023-09-18T06:44:05;92193.47;;;18.95;74.85
52735;BME280;38631;47.572;10.704;2023-09-18T06:46:31;92200.63;;;19.14;74.50
52735;BME280;38631;47.572;10.704;2023-09-18T06:48:56;92206.25;;;19.35;75.89
52735;BME280;38631;47.572;10.704;2023-09-18T06:51:23;92204.91;;;19.52;73.39
52735;BME280;38631;47.572;10.704;2023-09-18T06:53:48;92203.94;;;19.68;70.59
52735;BME280;38631;47.572;10.704;2023-09-18T06:56:14;92202.75;;;20.06;68.81
52735;BME280;38631;47.572;10.704;2023-09-18T06:58:39;92199.38;;;20.16;67.87
52735;BME280;38631;47.572;10.704;2023-09-18T07:01:04;92194.03;;;20.20;67.15
52735;BME280;38631;47.572;10.704;2023-09-18T07:03:35;92192.88;;;20.21;66.36
52735;BME280;38631;47.572;10.704;2023-09-18T07:06:02;92198.19;;;20.14;68.34
52735;BME280;38631;47.572;10.704;2023-09-18T07:08:27;92193.03;;;19.94;71.15
52735;BME280;38631;47.572;10.704;2023-09-18T07:10:52;92196.78;;;19.86;71.25
52735;BME280;38631;47.572;10.704;2023-09-18T07:13:18;92196.47;;;19.91;70.32
52735;BME280;38631;47.572;10.704;2023-09-18T07:15:43;92195.28;;;19.89;70.73
52735;BME280;38631;47.572;10.704;2023-09-18T07:18:12;92192.22;;;19.90;69.60
52735;BME280;38631;47.572;10.704;2023-09-18T07:20:48;92197.53;;;19.79;74.46
52735;BME280;38631;47.572;10.704;2023-09-18T07:23:13;92198.69;;;19.82;70.87
52735;BME280;38631;47.572;10.704;2023-09-18T07:25:39;92197.94;;;19.81;71.05
52735;BME280;38631;47.572;10.704;2023-09-18T07:28:06;92207.16;;;19.80;72.38
52735;BME280;38631;47.572;10.704;2023-09-18T07:30:31;92215.94;;;19.74;71.51
52735;BME280;38631;47.572;10.704;2023-09-18T07:32:57;92221.34;;;19.74;72.30
52735;BME280;38631;47.572;10.704;2023-09-18T07:35:23;92233.59;;;19.71;72.57
52735;BME280;38631;47.572;10.704;2023-09-18T07:37:49;92232.41;;;19.69;73.91
52735;BME280;38631;47.572;10.704;2023-09-18T07:40:14;92257.06;;;19.71;73.22
52735;BME280;38631;47.572;10.704;2023-09-18T07:42:41;92254.69;;;19.65;73.18
52735;BME280;38631;47.572;10.704;2023-09-18T07:45:09;92263.63;;;19.70;72.88
52735;BME280;38631;47.572;10.704;2023-09-18T07:47:34;92270.41;;;19.60;74.69
52735;BME280;38631;47.572;10.704;2023-09-18T07:49:59;92275.38;;;19.58;75.39
52735;BME280;38631;47.572;10.704;2023-09-18T07:52:25;92275.75;;;19.56;75.80
52735;BME280;38631;47.572;10.704;2023-09-18T07:54:50;92279.16;;;19.53;78.93
52735;BME280;38631;47.572;10.704;2023-09-18T07:57:16;92281.06;;;19.49;78.01
52735;BME280;38631;47.572;10.704;2023-09-18T07:59:41;92291.84;;;19.49;77.80
52735;BME280;38631;47.572;10.704;2023-09-18T08:02:07;92303.81;;;19.55;77.34
52735;BME280;38631;47.572;10.704;2023-09-18T08:04:34;92307.22;;;19.49;78.19
52735;BME280;38631;47.572;10.704;2023-09-18T08:07:00;92301.75;;;19.41;78.31
52735;BME280;38631;47.572;10.704;2023-09-18T08:09:25;92311.47;;;19.50;78.41
52735;BME280;38631;47.572;10.704;2023-09-18T08:11:51;92309.44;;;19.43;79.81
52735;BME280;38631;47.572;10.704;2023-09-18T08:14:20;92315.66;;;19.47;79.10
52735;BME280;38631;47.572;10.704;2023-09-18T08:16:45;92321.06;;;19.47;79.38
52735;BME280;38631;47.572;10.704;2023-09-18T08:19:15;92329.91;;;19.48;79.00
52735;BME280;38631;47.572;10.704;2023-09-18T08:21:42;92323.75;;;19.47;79.56
52735;BME280;38631;47.572;10.704;2023-09-18T08:24:07;92338.44;;;19.53;77.04
52735;BME280;38631;47.572;10.704;2023-09-18T08:26:33;92341.13;;;19.53;79.05
52735;BME280;38631;47.572;10.704;2023-09-18T08:28:58;92329.97;;;19.51;77.83
52735;BME280;38631;47.572;10.704;2023-09-18T08:31:23;92332.34;;;19.56;79.71
52735;BME280;38631;47.572;10.704;2023-09-18T08:33:49;92332.28;;;19.53;78.46
52735;BME280;38631;47.572;10.704;2023-09-18T08:36:16;92325.59;;;19.43;80.19
52735;BME280;38631;47.572;10.704;2023-09-18T08:38:41;92327.44;;;19.35;81.59
52735;BME280;38631;47.572;10.704;2023-09-18T08:41:09;92341.75;;;19.43;82.02
52735;BME280;38631;47.572;10.704;2023-09-18T08:43:37;92327.94;;;19.45;85.34
52735;BME280;38631;47.572;10.704;2023-09-18T08:46:06;92329.97;;;19.51;82.46
52735;BME280;38631;47.572;10.704;2023-09-18T08:48:32;92321.50;;;19.53;83.14
52735;BME280;38631;47.572;10.704;2023-09-18T08:51:02;92328.16;;;19.62;81.35
52735;BME280;38631;47.572;10.704;2023-09-18T08:53:31;92326.66;;;19.65;81.29
52735;BME280;38631;47.572;10.704;2023-09-18T08:55:57;92330.31;;;19.76;82.13
52735;BME280;38631;47.572;10.704;2023-09-18T08:58:25;92324.59;;;19.81;80.56
52735;BME280;38631;47.572;10.704;2023-09-18T09:00:51;92315.78;;;19.88;78.86
52735;BME280;38631;47.572;10.704;2023-09-18T09:03:17;92310.28;;;19.77;77.89
52735;BME280;38631;47.572;10.704;2023-09-18T09:05:43;92317.28;;;19.82;77.06
52735;BME280;38631;47.572;10.704;2023-09-18T09:08:08;92321.16;;;19.84;77.42
52735;BME280;38631;47.572;10.704;2023-09-18T09:10:34;92320.81;;;19.90;78.89
52735;BME280;38631;47.572;10.704;2023-09-18T09:13:00;92319.25;;;19.89;77.40
52735;BME280;38631;47.572;10.704;2023-09-18T09:15:28;92313.16;;;19.92;78.41
52735;BME280;38631;47.572;10.704;2023-09-18T09:18:05;92322.00;;;19.92;80.15
52735;BME280;38631;47.572;10.704;2023-09-18T09:20:31;92321.50;;;19.83;80.08
52735;BME280;38631;47.572;10.704;2023-09-18T09:23:01;92330.13;;;19.65;80.27
52735;BME280;38631;47.572;10.704;2023-09-18T09:25:28;92335.63;;;19.46;81.90
52735;BME280;38631;47.572;10.704;2023-09-18T09:27:57;92347.13;;;19.39;82.27
52735;BME280;38631;47.572;10.704;2023-09-18T09:30:24;92359.31;;;19.33;82.13
52735;BME280;38631;47.572;10.704;2023-09-18T09:32:51;92353.78;;;19.23;84.40
52735;BME280;38631;47.572;10.704;2023-09-18T09:35:25;92353.66;;;19.12;85.65
52735;BME280;38631;47.572;10.704;2023-09-18T09:38:15;92358.38;;;18.95;91.40
52735;BME280;38631;47.572;10.704;2023-09-18T09:40:42;92350.59;;;18.87;91.19
52735;BME280;38631;47.572;10.704;2023-09-18T09:43:09;92360.66;;;18.93;93.39
52735;BME280;38631;47.572;10.704;2023-09-18T09:45:35;92364.19;;;18.74;93.18
52735;BME280;38631;47.572;10.704;2023-09-18T09:48:03;92372.41;;;18.82;90.62
52735;BME280;38631;47.572;10.704;2023-09-18T09:50:29;92373.41;;;18.73;87.98
52735;BME280;38631;47.572;10.704;2023-09-18T09:52:55;92362.16;;;18.68;85.98
52735;BME280;38631;47.572;10.704;2023-09-18T09:55:53;92370.41;;;18.55;88.02
52735;BME280;38631;47.572;10.704;2023-09-18T09:58:26;92380.16;;;18.64;84.29
52735;BME280;38631;47.572;10.704;2023-09-18T10:00:55;92376.06;;;18.50;83.96
52735;BME280;38631;47.572;10.704;2023-09-18T10:03:24;92390.59;;;18.46;84.37
52735;BME280;38631;47.572;10.704;2023-09-18T10:05:51;92398.78;;;18.53;84.91
52735;BME280;38631;47.572;10.704;2023-09-18T10:08:24;92383.53;;;18.38;83.09
52735;BME280;38631;47.572;10.704;2023-09-18T10:10:53;92398.91;;;18.37;83.68
52735;BME280;38631;47.572;10.704;2023-09-18T10:13:41;92389.16;;;18.29;84.04
52735;BME280;38631;47.572;10.704;2023-09-18T10:16:12;92400.69;;;18.29;84.67
52735;BME280;38631;47.572;10.704;2023-09-18T10:21:38;92414.25;;;18.17;83.60
52735;BME280;38631;47.572;10.704;2023-09-18T10:24:25;92410.31;;;18.11;83.40
52735;BME280;38631;47.572;10.704;2023-09-18T10:26:58;92411.28;;;18.03;81.97
52735;BME280;38631;47.572;10.704;2023-09-18T10:29:25;92419.34;;;18.03;84.30
52735;BME280;38631;47.572;10.704;2023-09-18T10:31:51;92416.91;;;17.94;82.90
52735;BME280;38631;47.572;10.704;2023-09-18T10:34:18;92431.31;;;17.86;83.87
52735;BME280;38631;47.572;10.704;2023-09-18T10:36:47;92430.81;;;17.80;84.07
52735;BME280;38631;47.572;10.704;2023-09-18T10:39:12;92450.84;;;17.67;87.52
52735;BME280;38631;47.572;10.704;2023-09-18T10:41:38;92463.72;;;17.42;89.76
52735;BME280;38631;47.572;10.704;2023-09-18T10:44:05;92461.22;;;17.01;93.88
52735;BME280;38631;47.572;10.704;2023-09-18T10:46:31;92473.09;;;17.00;96.93
52735;BME280;38631;47.572;10.704;2023-09-18T10:48:59;92477.63;;;16.40;99.77
52735;BME280;38631;47.572;10.704;2023-09-18T10:51:24;92484.81;;;16.36;100.00
52735;BME280;38631;47.572;10.704;2023-09-18T10:53:50;92492.00;;;16.19;100.00
52735;BME280;38631;47.572;10.704;2023-09-18T10:56:19;92486.81;;;16.39;100.00
52735;BME280;38631;47.572;10.704;2023-09-18T10:58:45;92467.81;;;16.16;100.00
52735;BME280;38631;47.572;10.704;2023-09-18T11:01:13;92482.38;;;16.03;100.00
52735;BME280;38631;47.572;10.704;2023-09-18T11:03:39;92487.91;;;16.10;100.00
52735;BME280;38631;47.572;10.704;2023-09-18T11:06:07;92495.78;;;16.31;100.00
52735;BME280;38631;47.572;10.704;2023-09-18T11:08:36;92508.19;;;16.23;100.00
52735;BME280;38631;47.572;10.704;2023-09-18T11:11:10;92506.38;;;16.27;100.00
52735;BME280;38631;47.572;10.704;2023-09-18T11:13:41;92518.06;;;16.07;100.00
52735;BME280;38631;47.572;10.704;2023-09-18T11:16:15;92519.03;;;16.14;100.00
52735;BME280;38631;47.572;10.704;2023-09-18T11:18:41;92512.75;;;15.82;100.00
52735;BME280;38631;47.572;10.704;2023-09-18T11:21:11;92530.16;;;15.88;100.00
52735;BME280;38631;47.572;10.704;2023-09-18T11:23:38;92523.88;;;15.96;100.00
52735;BME280;38631;47.572;10.704;2023-09-18T11:26:07;92539.94;;;16.09;100.00
52735;BME280;38631;47.572;10.704;2023-09-18T11:28:32;92530.03;;;15.85;100.00
52735;BME280;38631;47.572;10.704;2023-09-18T11:30:58;92531.84;;;15.56;100.00
52735;BME280;38631;47.572;10.704;2023-09-18T11:33:39;92530.72;;;15.32;100.00
52735;BME280;38631;47.572;10.704;2023-09-18T11:36:12;92535.28;;;15.69;100.00
52735;BME280;38631;47.572;10.704;2023-09-18T11:38:59;92542.28;;;16.10;100.00
52735;BME280;38631;47.572;10.704;2023-09-18T11:41:29;92544.56;;;15.84;100.00
52735;BME280;38631;47.572;10.704;2023-09-18T11:46:40;92525.59;;;15.89;100.00
52735;BME280;38631;47.572;10.704;2023-09-18T11:49:10;92531.25;;;15.99;100.00
52735;BME280;38631;47.572;10.704;2023-09-18T11:51:36;92535.78;;;16.24;100.00
52735;BME280;38631;47.572;10.704;2023-09-18T11:54:03;92528.31;;;16.05;100.00
52735;BME280;38631;47.572;10.704;2023-09-18T11:56:31;92528.38;;;15.68;100.00
52735;BME280;38631;47.572;10.704;2023-09-18T11:58:57;92524.25;;;15.58;100.00
52735;BME280;38631;47.572;10.704;2023-09-18T12:01:24;92521.59;;;15.46;100.00
52735;BME280;38631;47.572;10.704;2023-09-18T12:03:54;92512.97;;;15.65;100.00
52735;BME280;38631;47.572;10.704;2023-09-18T12:06:20;92517.53;;;16.01;100.00
52735;BME280;38631;47.572;10.704;2023-09-18T12:08:46;92510.72;;;16.32;100.00
52735;BME280;38631;47.572;10.704;2023-09-18T12:11:12;92499.69;;;16.33;100.00
52735;BME280;38631;47.572;10.704;2023-09-18T12:13:42;92509.75;;;16.52;100.00
52735;BME280;38631;47.572;10.704;2023-09-18T12:16:07;92494.88;;;16.27;100.00
52735;BME280;38631;47.572;10.704;2023-09-18T12:18:34;92499.59;;;16.74;100.00
52735;BME280;38631;47.572;10.704;2023-09-18T12:21:06;92503.97;;;16.94;100.00
52735;BME280;38631;47.572;10.704;2023-09-18T12:23:38;92493.53;;;16.61;100.00
52735;BME280;38631;47.572;10.704;2023-09-18T12:26:04;92496.97;;;16.61;100.00
52735;BME280;38631;47.572;10.704;2023-09-18T12:28:33;92500.28;;;16.71;100.00
52735;BME280;38631;47.572;10.704;2023-09-18T12:30:58;92495.16;;;16.78;100.00
52735;BME280;38631;47.572;10.704;2023-09-18T12:33:25;92491.94;;;16.60;100.00
52735;BME280;38631;47.572;10.704;2023-09-18T12:35:50;92486.78;;;16.67;100.00
52735;BME280;38631;47.572;10.704;2023-09-18T12:38:19;92486.41;;;16.81;100.00
52735;BME280;38631;47.572;10.704;2023-09-18T12:40:48;92487.53;;;16.52;100.00
52735;BME280;38631;47.572;10.704;2023-09-18T12:43:14;92482.94;;;16.52;100.00
52735;BME280;38631;47.572;10.704;2023-09-18T12:45:43;92486.63;;;16.76;100.00
52735;BME280;38631;47.572;10.704;2023-09-18T12:48:09;92471.78;;;16.78;100.00
52735;BME280;38631;47.572;10.704;2023-09-18T12:50:35;92475.69;;;16.53;100.00
52735;BME280;38631;47.572;10.704;2023-09-18T12:53:11;92471.97;;;16.57;100.00